Time;durP1;ratioP1;P1;durP2;ratioP2;P2;SDS_P1;SDS_P2;PMS_P1;PMS_P2;Temp;Humidity;BMP_temperature;BMP_pressure;BME280_temperature;BME280_humidity;BME280_pressure;Samples;Min_cycle;Max_cycle;Signal;HPM_P1;HPM_P2
2023/08/15 00:00:46;;;;;;;4.30;2.85;;;;;;;18.48;100.00;98055.38;1223839;75;2931435;-67
2023/08/15 00:03:19;;;;;;;2.90;2.60;;;;;;;18.65;100.00;98060.00;1223982;75;2924964;-70
2023/08/15 00:05:52;;;;;;;2.10;1.90;;;;;;;18.79;100.00;98058.84;1224116;75;2922411;-63
2023/08/15 00:08:24;;;;;;;3.55;2.50;;;;;;;18.55;100.00;98062.38;1223590;75;2918263;-66
2023/08/15 00:10:57;;;;;;;4.20;2.25;;;;;;;18.59;100.00;98062.06;1224427;75;2927822;-64
2023/08/15 00:13:32;;;;;;;2.50;2.25;;;;;;;18.55;100.00;98065.16;1222997;75;2929115;-65
2023/08/15 00:16:05;;;;;;;3.00;2.70;;;;;;;18.37;100.00;98066.56;1223968;75;2923250;-65
2023/08/15 00:18:37;;;;;;;2.95;2.65;;;;;;;18.46;100.00;98057.91;1224089;75;2934245;-66
2023/08/15 00:21:10;;;;;;;2.90;2.60;;;;;;;18.48;100.00;98049.84;1223934;75;2926306;-67
2023/08/15 00:23:43;;;;;;;3.10;2.45;;;;;;;18.64;100.00;98059.25;1224460;75;2932653;-65
2023/08/15 00:26:18;;;;;;;4.20;2.45;;;;;;;18.61;100.00;98049.19;1224504;75;2923949;-67
2023/08/15 00:28:53;;;;;;;2.45;2.25;;;;;;;18.43;100.00;98041.59;1224332;75;2919701;-65
2023/08/15 00:31:26;;;;;;;2.15;1.95;;;;;;;18.59;100.00;98048.97;1223865;75;2930061;-68
2023/08/15 00:33:58;;;;;;;2.30;2.10;;;;;;;18.58;100.00;98044.69;1224075;75;2923873;-68
2023/08/15 00:36:31;;;;;;;1.95;1.65;;;;;;;18.55;100.00;98045.00;1222886;75;2923179;-66
2023/08/15 00:39:04;;;;;;;1.95;1.70;;;;;;;18.51;100.00;98043.25;1223874;75;2917902;-67
2023/08/15 00:41:36;;;;;;;1.90;1.70;;;;;;;18.63;100.00;98043.13;1224364;75;2928224;-67
2023/08/15 00:44:12;;;;;;;2.30;1.90;;;;;;;18.44;100.00;98037.53;1224226;75;2920770;-66
2023/08/15 00:46:45;;;;;;;2.30;2.10;;;;;;;18.26;100.00;98036.97;1223601;75;2928873;-65
2023/08/15 00:49:17;;;;;;;2.30;2.00;;;;;;;18.19;100.00;98036.78;1224213;75;2926160;-65
2023/08/15 00:51:51;;;;;;;2.40;2.20;;;;;;;18.31;100.00;98035.41;1223631;75;2924505;-67
2023/08/15 00:54:23;;;;;;;1.85;1.60;;;;;;;18.35;100.00;98021.25;1224210;75;2919360;-66
2023/08/15 00:56:56;;;;;;;2.05;1.85;;;;;;;18.35;100.00;98021.25;1223454;75;2922480;-62
2023/08/15 00:59:31;;;;;;;1.70;1.60;;;;;;;18.32;100.00;98025.81;1223805;75;2925769;-69
2023/08/15 01:02:05;;;;;;;2.10;1.90;;;;;;;18.33;100.00;98024.56;1223969;75;2927460;-67
2023/08/15 01:04:38;;;;;;;2.60;2.10;;;;;;;18.27;100.00;98024.59;1223155;75;2935524;-68
2023/08/15 01:07:12;;;;;;;2.25;2.05;;;;;;;18.04;100.00;98010.22;1223718;75;2926011;-66
2023/08/15 01:09:44;;;;;;;4.45;3.25;;;;;;;17.71;100.00;98024.34;1223654;75;2927527;-66
2023/08/15 01:12:51;;;;;;;4.70;4.30;;;;;;;17.65;100.00;98021.59;1224035;75;2925177;-65
2023/08/15 01:15:29;;;;;;;5.10;3.95;;;;;;;17.49;100.00;98026.00;1224560;75;2924515;-70
2023/08/15 01:18:11;;;;;;;3.70;3.40;;;;;;;17.86;100.00;98033.78;1224707;75;2925253;-64
2023/08/15 01:20:44;;;;;;;3.25;2.95;;;;;;;17.90;100.00;98022.44;1223985;75;2923258;-67
2023/08/15 01:23:19;;;;;;;2.95;2.75;;;;;;;17.83;100.00;98012.66;1224165;75;2921163;-67
2023/08/15 01:25:57;;;;;;;3.00;2.70;;;;;;;17.79;100.00;98014.94;1223893;75;2927223;-68
2023/08/15 01:28:30;;;;;;;3.00;2.70;;;;;;;17.97;100.00;98027.41;1223586;75;2925845;-64
2023/08/15 01:31:12;;;;;;;3.60;2.30;;;;;;;17.98;100.00;98026.13;1223897;75;2926001;-67
2023/08/15 01:33:54;;;;;;;2.10;1.90;;;;;;;17.98;100.00;98025.38;1223224;75;2934814;-65
2023/08/15 01:36:33;;;;;;;2.20;2.00;;;;;;;17.92;100.00;98016.38;1223630;75;2928024;-64
2023/08/15 01:39:09;;;;;;;2.00;1.80;;;;;;;17.64;100.00;98026.38;1222953;75;2922683;-63
2023/08/15 01:41:47;;;;;;;2.40;2.20;;;;;;;17.74;100.00;98024.03;1224617;75;2923945;-65
2023/08/15 01:44:21;;;;;;;2.40;2.20;;;;;;;17.71;100.00;98019.53;1224060;75;2925427;-66
2023/08/15 01:46:54;;;;;;;1.95;1.70;;;;;;;17.83;100.00;98012.66;1223457;75;2931689;-66
2023/08/15 01:49:26;;;;;;;2.25;2.05;;;;;;;17.82;100.00;98011.19;1224040;75;2920711;-63
2023/08/15 01:51:59;;;;;;;2.20;2.00;;;;;;;17.90;100.00;98005.06;1223282;75;2931156;-66
2023/08/15 01:54:32;;;;;;;2.20;2.00;;;;;;;17.70;100.00;98006.94;1223784;75;2923924;-67
2023/08/15 01:57:08;;;;;;;2.20;2.00;;;;;;;17.75;100.00;98003.41;1222611;75;2948462;-67
2023/08/15 01:59:43;;;;;;;3.75;2.55;;;;;;;17.45;100.00;98008.91;1222021;75;2923646;-64
2023/08/15 02:02:16;;;;;;;2.85;2.45;;;;;;;17.63;100.00;98008.28;1223118;75;2939276;-66
2023/08/15 02:04:48;;;;;;;2.50;2.30;;;;;;;17.65;100.00;98002.22;1223734;75;2923525;-63
2023/08/15 02:07:21;;;;;;;3.65;2.30;;;;;;;17.59;100.00;98004.28;1223394;75;2925103;-66
2023/08/15 02:09:53;;;;;;;2.20;2.00;;;;;;;17.58;100.00;98006.31;1223818;75;2925727;-64
2023/08/15 02:12:29;;;;;;;2.20;2.05;;;;;;;17.55;100.00;98010.09;1222123;75;2935200;-63
2023/08/15 02:15:02;;;;;;;2.30;2.10;;;;;;;17.56;100.00;97999.78;1223949;75;2924606;-64
2023/08/15 02:17:35;;;;;;;2.95;2.20;;;;;;;17.55;100.00;97996.25;1223272;75;2920846;-68
2023/08/15 02:20:09;;;;;;;2.25;1.70;;;;;;;17.52;100.00;97997.28;1223692;75;2923042;-66
2023/08/15 02:22:42;;;;;;;2.25;2.05;;;;;;;17.47;100.00;98000.84;1223569;75;2926326;-68
2023/08/15 02:25:14;;;;;;;2.30;2.10;;;;;;;17.49;100.00;98005.88;1222995;75;2923594;-67
2023/08/15 02:27:50;;;;;;;2.10;1.90;;;;;;;17.44;100.00;97999.13;1223114;75;2923847;-65
2023/08/15 02:30:22;;;;;;;2.30;2.10;;;;;;;17.47;100.00;98003.63;1222865;75;2924566;-65
2023/08/15 02:32:55;;;;;;;2.05;1.85;;;;;;;17.47;100.00;97998.06;1224258;75;2923206;-70
2023/08/15 02:35:27;;;;;;;2.15;1.90;;;;;;;17.39;100.00;98002.66;1223461;75;2920579;-65
2023/08/15 02:38:00;;;;;;;2.85;1.95;;;;;;;17.38;100.00;97998.38;1223584;75;2928926;-66
2023/08/15 02:40:33;;;;;;;1.80;1.70;;;;;;;17.39;100.00;97995.13;1224396;75;2924126;-66
2023/08/15 02:43:08;;;;;;;3.00;1.75;;;;;;;17.34;100.00;98001.44;1223878;75;2924713;-65
2023/08/15 02:45:41;;;;;;;2.05;1.85;;;;;;;17.36;100.00;98000.91;1223497;75;2928796;-67
2023/08/15 02:48:13;;;;;;;2.45;2.25;;;;;;;17.29;100.00;97998.69;1224284;75;2922064;-67
2023/08/15 02:50:46;;;;;;;2.20;2.00;;;;;;;17.27;100.00;98002.00;1223588;75;2931187;-64
2023/08/15 02:53:19;;;;;;;1.90;1.80;;;;;;;17.30;100.00;98000.97;1223387;75;2923419;-70
2023/08/15 02:55:54;;;;;;;1.90;1.80;;;;;;;17.27;100.00;97999.22;1224112;75;2921676;-64
2023/08/15 02:58:29;;;;;;;2.00;1.85;;;;;;;17.27;100.00;97993.69;1223189;75;2922310;-66
2023/08/15 03:01:02;;;;;;;1.85;1.75;;;;;;;17.20;100.00;97995.00;1223270;75;2924321;-65
2023/08/15 03:03:35;;;;;;;2.00;1.90;;;;;;;17.15;100.00;97997.78;1223529;75;2921712;-66
2023/08/15 03:06:09;;;;;;;2.05;1.85;;;;;;;17.17;100.00;98000.78;1223892;75;2925903;-67
2023/08/15 03:08:41;;;;;;;2.15;1.95;;;;;;;17.18;100.00;98005.81;1224283;75;2918259;-65
2023/08/15 03:11:14;;;;;;;1.95;1.85;;;;;;;17.19;100.00;98001.03;1223562;75;2925343;-65
2023/08/15 03:13:49;;;;;;;2.35;1.85;;;;;;;17.09;100.00;98000.56;1224000;75;2925483;-64
2023/08/15 03:16:22;;;;;;;2.95;1.85;;;;;;;17.04;100.00;97988.28;1224158;75;2924349;-68
2023/08/15 03:18:54;;;;;;;3.40;2.00;;;;;;;17.10;100.00;97993.03;1224217;75;2920999;-69
2023/08/15 03:21:27;;;;;;;2.05;1.85;;;;;;;17.07;100.00;97999.59;1222655;75;2898640;-65
2023/08/15 03:23:59;;;;;;;1.60;1.50;;;;;;;17.02;100.00;97995.59;1223122;75;2928328;-67
2023/08/15 03:26:32;;;;;;;1.80;1.70;;;;;;;17.07;100.00;97999.59;1224381;75;2922037;-65
2023/08/15 03:29:08;;;;;;;2.00;1.90;;;;;;;17.04;100.00;97991.03;1223408;75;2926607;-67
2023/08/15 03:31:40;;;;;;;1.90;1.70;;;;;;;17.08;100.00;97995.53;1223458;75;2927226;-66
2023/08/15 03:34:13;;;;;;;2.10;1.90;;;;;;;17.04;100.00;97998.59;1224382;75;2923993;-67
2023/08/15 03:36:47;;;;;;;2.05;1.95;;;;;;;17.02;100.00;97995.59;1224559;75;2923698;-65
2023/08/15 03:39:20;;;;;;;2.20;1.80;;;;;;;17.00;100.00;97990.59;1224396;75;2921986;-65
2023/08/15 03:41:53;;;;;;;2.20;2.00;;;;;;;16.95;100.00;98001.66;1223751;75;2927537;-66
2023/08/15 03:44:28;;;;;;;2.10;1.90;;;;;;;16.91;100.00;97993.66;1223205;75;2919308;-67
2023/08/15 03:47:00;;;;;;;2.25;2.00;;;;;;;16.91;100.00;97999.19;1223690;75;2918467;-64
2023/08/15 03:49:33;;;;;;;2.45;2.00;;;;;;;16.91;100.00;98003.94;1223277;75;2926219;-65
2023/08/15 03:52:07;;;;;;;2.05;1.95;;;;;;;16.90;100.00;98002.44;1223357;75;2920781;-64
2023/08/15 03:54:39;;;;;;;2.40;2.20;;;;;;;16.87;100.00;98001.44;1223883;75;2927120;-70
2023/08/15 03:57:12;;;;;;;2.55;2.35;;;;;;;16.95;100.00;97998.91;1224040;75;2923242;-65
2023/08/15 03:59:47;;;;;;;2.05;1.85;;;;;;;16.90;100.00;98008.72;1223881;75;2920634;-65
2023/08/15 04:02:19;;;;;;;2.90;2.30;;;;;;;16.76;100.00;98007.78;1221895;75;2937047;-65
2023/08/15 04:04:52;;;;;;;2.20;2.00;;;;;;;16.85;100.00;98012.28;1224179;75;2925119;-64
2023/08/15 04:07:25;;;;;;;2.25;2.05;;;;;;;16.86;100.00;98007.47;1223552;75;2919648;-66
2023/08/15 04:09:57;;;;;;;2.10;1.90;;;;;;;16.81;100.00;98009.00;1223745;75;2923759;-64
2023/08/15 04:12:30;;;;;;;2.10;1.90;;;;;;;16.91;100.00;98004.72;1223668;75;2922561;-66
2023/08/15 04:15:06;;;;;;;1.80;1.70;;;;;;;16.97;100.00;98008.19;1223855;75;2923232;-66
2023/08/15 04:17:38;;;;;;;2.05;1.85;;;;;;;16.96;100.00;98005.94;1223182;75;2928796;-66
2023/08/15 04:20:13;;;;;;;2.00;1.90;;;;;;;16.90;100.00;98005.97;1223710;75;2921276;-63
2023/08/15 04:22:46;;;;;;;1.85;1.75;;;;;;;16.81;100.00;98003.47;1224210;75;2922181;-63
2023/08/15 04:25:18;;;;;;;3.20;2.30;;;;;;;16.75;100.00;98006.25;1223923;75;2926068;-68
2023/08/15 04:27:51;;;;;;;2.00;1.90;;;;;;;16.85;100.00;98001.22;1222935;75;2929093;-67
2023/08/15 04:30:27;;;;;;;3.20;2.80;;;;;;;16.91;100.00;98003.94;1223071;75;2924586;-69
2023/08/15 04:33:00;;;;;;;2.50;2.30;;;;;;;16.97;100.00;98002.66;1223899;75;2925285;-65
2023/08/15 04:35:33;;;;;;;2.65;2.45;;;;;;;17.01;100.00;98002.41;1223784;75;2920140;-68
2023/08/15 04:38:06;;;;;;;2.35;2.15;;;;;;;17.09;100.00;98010.91;1224149;75;2925483;-66
2023/08/15 04:40:40;;;;;;;2.40;2.20;;;;;;;16.82;100.00;98007.78;1224536;75;2926321;-68
2023/08/15 04:43:13;;;;;;;2.30;2.10;;;;;;;16.94;100.00;98005.69;1222299;75;2925647;-65
2023/08/15 04:45:48;;;;;;;3.00;2.70;;;;;;;17.09;100.00;98010.91;1222878;75;2880049;-67
2023/08/15 04:48:21;;;;;;;4.00;2.45;;;;;;;17.13;100.00;98011.38;1223552;75;2924499;-65
2023/08/15 04:50:54;;;;;;;2.60;2.40;;;;;;;16.92;100.00;98006.19;1224154;75;2918484;-69
2023/08/15 04:53:26;;;;;;;3.45;2.80;;;;;;;16.85;100.00;98012.28;1224113;75;2930089;-64
2023/08/15 04:55:59;;;;;;;4.25;3.05;;;;;;;17.04;100.00;98017.97;1223580;75;2923814;-67
2023/08/15 04:58:32;;;;;;;3.80;3.50;;;;;;;16.98;100.00;98020.00;1223905;75;2920259;-69
2023/08/15 05:01:08;;;;;;;3.30;3.00;;;;;;;17.11;100.00;98017.41;1223673;75;2918869;-67
2023/08/15 05:03:40;;;;;;;3.50;3.20;;;;;;;17.14;100.00;98023.94;1224225;75;2933193;-64
2023/08/15 05:06:13;;;;;;;5.50;5.00;;;;;;;17.30;100.00;98019.59;1224114;75;2922081;-69
2023/08/15 05:08:45;;;;;;;6.95;5.50;;;;;;;16.99;100.00;98010.44;1222800;75;2978943;-64
2023/08/15 05:11:18;;;;;;;6.25;5.55;;;;;;;17.32;100.00;98019.81;1224376;75;2920749;-63
2023/08/15 05:13:51;;;;;;;11.45;10.30;;;;;;;17.38;100.00;98015.75;1224198;75;2920799;-67
2023/08/15 05:16:27;;;;;;;13.60;12.30;;;;;;;17.55;100.00;98023.19;1223789;75;2924677;-70
2023/08/15 05:18:59;;;;;;;11.30;10.20;;;;;;;17.46;100.00;98021.47;1223261;75;2924127;-71
2023/08/15 05:21:32;;;;;;;11.10;10.10;;;;;;;17.59;100.00;98013.34;1223858;75;2921049;-67
2023/08/15 05:24:04;;;;;;;11.85;10.70;;;;;;;17.63;100.00;98015.81;1224109;75;2918644;-72
2023/08/15 05:26:37;;;;;;;37.10;33.30;;;;;;;17.73;100.00;98014.25;1223957;75;2930997;-67
2023/08/15 05:29:09;;;;;;;24.25;21.75;;;;;;;17.92;100.00;98019.91;1223554;75;2925569;-68
2023/08/15 05:31:45;;;;;;;21.25;19.25;;;;;;;17.93;100.00;98020.66;1223611;75;2932782;-67
2023/08/15 05:34:17;;;;;;;14.10;12.70;;;;;;;18.13;100.00;98022.22;1223245;75;2922968;-66
2023/08/15 05:36:50;;;;;;;9.55;8.65;;;;;;;18.13;100.00;98022.22;1222643;75;2926230;-65
2023/08/15 05:39:22;;;;;;;7.00;6.40;;;;;;;18.18;100.00;98022.16;1223882;75;2917042;-63
2023/08/15 05:41:55;;;;;;;5.30;4.80;;;;;;;18.33;100.00;98030.09;1223238;75;2922556;-66
2023/08/15 05:44:28;;;;;;;4.85;3.70;;;;;;;18.35;100.00;98021.25;1223915;75;2924812;-65
2023/08/15 05:47:03;;;;;;;4.60;4.20;;;;;;;18.41;100.00;98033.03;1223827;75;2924339;-66
2023/08/15 05:49:36;;;;;;;4.35;3.95;;;;;;;18.54;100.00;98033.13;1222779;75;2927427;-66
2023/08/15 05:52:09;;;;;;;3.90;3.60;;;;;;;18.45;100.00;98039.78;1224005;75;2925765;-69
2023/08/15 05:54:44;;;;;;;3.65;3.35;;;;;;;18.74;100.00;98035.44;1224389;75;2924653;-68
2023/08/15 05:57:17;;;;;;;3.20;2.90;;;;;;;18.92;100.00;98027.69;1223800;75;2927299;-65
2023/08/15 05:59:50;;;;;;;2.80;2.60;;;;;;;18.88;100.00;98032.75;1222805;75;2933630;-67
2023/08/15 06:02:25;;;;;;;3.40;3.10;;;;;;;19.06;100.00;98036.84;1205503;75;4073183;-67
2023/08/15 06:04:58;;;;;;;3.40;3.10;;;;;;;19.20;100.00;98034.91;1221704;75;3011452;-69
2023/08/15 06:07:30;;;;;;;4.20;3.40;;;;;;;19.12;100.00;98034.72;1213896;75;2900060;-64
2023/08/15 06:10:03;;;;;;;6.10;4.25;;;;;;;19.40;100.00;98034.34;1222302;75;2925909;-69
2023/08/15 06:12:36;;;;;;;4.55;4.15;;;;;;;19.49;100.00;98033.97;1223773;75;2926160;-67
2023/08/15 06:15:10;;;;;;;5.45;4.95;;;;;;;19.32;100.00;98030.69;1224024;75;2923989;-67
2023/08/15 06:17:45;;;;;;;5.30;4.80;;;;;;;19.45;100.00;98027.22;1223365;75;2923314;-67
2023/08/15 06:20:18;;;;;;;6.85;6.15;;;;;;;19.41;100.00;98030.31;1223916;75;2918064;-67
2023/08/15 06:22:51;;;;;;;6.30;5.70;;;;;;;19.55;100.00;98031.09;1177093;75;5095245;-70
2023/08/15 06:25:24;;;;;;;7.30;6.40;;;;;;;19.77;100.00;98041.13;1189595;75;5568031;-68
2023/08/15 06:27:56;;;;;;;6.85;6.15;;;;;;;19.73;100.00;98030.34;1221583;75;2927940;-68
2023/08/15 06:30:29;;;;;;;6.70;6.10;;;;;;;19.80;100.00;98040.09;1220362;75;2927055;-70
2023/08/15 06:33:07;;;;;;;6.50;5.90;;;;;;;20.00;100.00;98035.97;1139093;75;5534544;-68
2023/08/15 06:35:40;;;;;;;6.30;5.70;;;;;;;20.28;100.00;98029.91;1099802;75;10074443;-68
2023/08/15 06:38:13;;;;;;;7.15;6.45;;;;;;;20.20;100.00;98029.03;1223127;75;2902590;-68
2023/08/15 06:40:51;;;;;;;6.90;6.20;;;;;;;20.37;100.00;98018.38;1221337;75;2929426;-70
2023/08/15 06:43:28;;;;;;;7.10;5.95;;;;;;;20.45;100.00;98026.09;1223278;75;2846247;-69
2023/08/15 06:46:00;;;;;;;6.25;5.65;;;;;;;20.81;100.00;98024.38;1221958;75;2935948;-68
2023/08/15 06:48:36;;;;;;;6.60;6.00;;;;;;;20.78;100.00;98027.47;1221945;75;2922454;-72
2023/08/15 06:51:08;;;;;;;6.60;5.90;;;;;;;21.03;100.00;98025.94;1220359;75;2920441;-71
2023/08/15 06:53:43;;;;;;;5.95;5.35;;;;;;;21.28;100.00;98022.88;1220806;75;2924290;-68
2023/08/15 06:56:16;;;;;;;5.50;4.95;;;;;;;21.46;100.00;98019.19;1222305;75;2926994;-71
2023/08/15 06:58:49;;;;;;;6.25;5.65;;;;;;;21.55;100.00;98026.34;1222431;75;2927298;-70
2023/08/15 07:01:21;;;;;;;6.30;5.40;;;;;;;21.80;100.00;98018.38;1207045;75;4106578;-71
2023/08/15 07:03:57;;;;;;;6.35;5.75;;;;;;;21.91;100.00;98023.69;1223160;75;2928475;-70
2023/08/15 07:06:29;;;;;;;6.45;5.85;;;;;;;21.92;100.00;98021.66;1222064;75;2928242;-71
2023/08/15 07:09:02;;;;;;;7.05;6.35;;;;;;;22.10;100.00;98023.47;1222919;75;2921162;-71
2023/08/15 07:11:35;;;;;;;7.70;6.10;;;;;;;22.29;99.02;98030.88;1221712;75;2925226;-69
2023/08/15 07:14:08;;;;;;;6.45;5.85;;;;;;;22.57;96.72;98026.59;1223204;75;2922819;-69
2023/08/15 07:16:40;;;;;;;6.50;5.85;;;;;;;22.83;94.53;98020.78;1222532;75;2924383;-68
2023/08/15 07:19:15;;;;;;;7.00;6.30;;;;;;;22.86;96.41;98022.44;1223696;75;2918828;-68
2023/08/15 07:21:48;;;;;;;6.50;5.15;;;;;;;23.24;92.50;98021.88;1222102;75;2926401;-71
2023/08/15 07:24:21;;;;;;;5.80;5.20;;;;;;;23.30;92.07;98022.44;1222803;75;2926343;-70
2023/08/15 07:26:54;;;;;;;5.80;5.20;;;;;;;23.67;85.46;98025.13;1222504;75;2945680;-68
2023/08/15 07:29:26;;;;;;;6.10;5.50;;;;;;;23.80;82.00;98022.19;1221747;75;2922700;-70
2023/08/15 07:31:59;;;;;;;5.95;5.15;;;;;;;24.04;80.60;98018.09;1220452;75;2923211;-71
2023/08/15 07:34:34;;;;;;;6.60;5.35;;;;;;;24.01;80.43;98017.16;1221261;75;2918360;-71
2023/08/15 07:37:07;;;;;;;7.95;5.05;;;;;;;23.76;77.23;98016.97;1222080;75;2924256;-70
2023/08/15 07:39:39;;;;;;;6.00;4.50;;;;;;;24.07;77.04;98019.00;1221549;75;2929298;-69
2023/08/15 07:42:12;;;;;;;5.55;4.50;;;;;;;24.45;75.09;98016.16;1220410;75;2932913;-72
2023/08/15 07:44:45;;;;;;;5.95;4.35;;;;;;;24.56;74.18;98021.41;1221143;75;2919041;-72
2023/08/15 07:47:17;;;;;;;5.50;4.00;;;;;;;24.83;72.69;98016.09;1222695;75;2925536;-72
2023/08/15 07:49:53;;;;;;;4.75;4.25;;;;;;;24.98;74.43;98017.34;1222361;75;2929376;-70
2023/08/15 07:52:25;;;;;;;5.90;4.90;;;;;;;24.49;72.50;98016.56;1221512;75;2923468;-73
2023/08/15 07:54:58;;;;;;;5.10;4.60;;;;;;;24.66;72.72;98018.75;1222186;75;2925878;-70
2023/08/15 07:57:30;;;;;;;5.85;4.90;;;;;;;24.75;73.97;98017.41;1222918;75;2927350;-71
2023/08/15 08:00:03;;;;;;;9.75;5.20;;;;;;;24.91;72.89;98015.31;1222449;75;2931153;-70
2023/08/15 08:02:36;;;;;;;5.35;4.50;;;;;;;25.44;72.95;98014.31;1222022;75;2922620;-70
2023/08/15 08:05:15;;;;;;;4.80;4.30;;;;;;;25.19;71.23;98011.50;1221468;75;2925836;-71
2023/08/15 08:07:48;;;;;;;6.95;4.60;;;;;;;25.33;70.89;98012.72;1221705;75;2933203;-71
2023/08/15 08:10:22;;;;;;;5.65;5.10;;;;;;;25.64;68.17;98012.50;1223940;75;2821077;-72
2023/08/15 08:12:55;;;;;;;5.45;4.45;;;;;;;25.82;65.58;98018.94;1222567;75;2920212;-71
2023/08/15 08:15:27;;;;;;;5.70;5.20;;;;;;;26.09;65.54;98013.50;1222969;75;2930071;-70
2023/08/15 08:18:00;;;;;;;4.80;4.30;;;;;;;26.20;66.66;98012.28;1220604;75;2965743;-72
2023/08/15 08:20:35;;;;;;;6.20;5.40;;;;;;;26.38;66.73;98018.66;1222812;75;2921724;-71
2023/08/15 08:23:08;;;;;;;6.35;5.75;;;;;;;26.60;65.99;98023.31;1222456;75;2939088;-71
2023/08/15 08:25:41;;;;;;;8.45;5.20;;;;;;;26.08;64.37;98023.97;1223515;75;2923937;-72
2023/08/15 08:28:15;;;;;;;6.10;4.15;;;;;;;26.48;65.37;98019.47;1223544;75;2919196;-71
2023/08/15 08:30:48;;;;;;;5.45;4.60;;;;;;;26.25;63.65;98020.47;1222465;75;2954335;-72
2023/08/15 08:33:21;;;;;;;5.25;4.35;;;;;;;26.56;63.30;98020.94;1223181;75;2919477;-74
2023/08/15 08:35:56;;;;;;;5.40;4.45;;;;;;;26.40;64.23;98019.56;1223753;75;2926226;-71
2023/08/15 08:38:28;;;;;;;4.45;3.95;;;;;;;27.12;62.14;98016.91;1223580;75;2927606;-72
2023/08/15 08:41:01;;;;;;;4.25;3.75;;;;;;;26.81;59.68;98022.16;1223667;75;2925818;-70
2023/08/15 08:43:33;;;;;;;4.85;3.70;;;;;;;27.48;60.38;98012.69;1223018;75;2929249;-72
2023/08/15 08:46:08;;;;;;;3.85;3.40;;;;;;;27.94;58.15;98006.38;1223467;75;2920544;-71
2023/08/15 08:48:43;;;;;;;3.95;3.60;;;;;;;27.46;58.66;98006.91;1219283;75;2958671;-72
2023/08/15 08:51:20;;;;;;;4.35;3.95;;;;;;;27.66;55.16;98005.69;1221563;75;2931002;-72
2023/08/15 08:53:55;;;;;;;5.10;3.90;;;;;;;28.04;54.85;98002.28;1220414;75;3069763;-72
2023/08/15 08:56:30;;;;;;;4.80;4.30;;;;;;;28.02;54.98;98002.13;1217955;75;2925249;-71
2023/08/15 08:59:08;;;;;;;3.60;3.30;;;;;;;28.58;55.44;98003.41;1222878;75;2921847;-74
2023/08/15 09:01:41;;;;;;;3.70;3.40;;;;;;;28.30;53.50;98008.38;1222356;75;2929140;-71
2023/08/15 09:04:14;;;;;;;3.70;3.30;;;;;;;27.86;55.38;98006.53;1135251;75;10065997;-71
2023/08/15 09:06:50;;;;;;;4.75;3.95;;;;;;;28.01;53.39;98000.63;1222034;75;2931700;-72
2023/08/15 09:09:22;;;;;;;3.40;3.10;;;;;;;28.41;54.61;97999.38;1220817;75;2939536;-72
2023/08/15 09:11:55;;;;;;;4.55;3.30;;;;;;;28.19;53.43;98001.28;1218290;75;2956982;-71
2023/08/15 09:14:28;;;;;;;4.45;3.65;;;;;;;28.17;53.39;97997.56;1222715;75;2924635;-69
2023/08/15 09:17:00;;;;;;;4.70;3.70;;;;;;;28.03;53.71;98000.78;1179711;75;4962942;-74
2023/08/15 09:19:33;;;;;;;4.45;3.55;;;;;;;28.50;54.68;97995.09;1223411;75;2921301;-70
2023/08/15 09:22:09;;;;;;;4.20;3.60;;;;;;;29.17;53.46;97999.22;1222286;75;2928616;-69
2023/08/15 09:24:45;;;;;;;4.25;3.75;;;;;;;28.24;53.94;97999.50;1221678;75;2924744;-70
2023/08/15 09:27:18;;;;;;;4.00;3.60;;;;;;;28.88;52.80;97999.97;1222032;75;2932237;-73
2023/08/15 09:29:50;;;;;;;4.50;4.05;;;;;;;28.64;53.47;97995.38;1221792;75;2924694;-73
2023/08/15 09:32:23;;;;;;;4.60;3.65;;;;;;;28.06;54.11;97998.13;1221335;75;2925161;-73
2023/08/15 09:34:56;;;;;;;5.55;4.10;;;;;;;28.61;53.51;97979.69;1221143;75;2925762;-71
2023/08/15 09:37:31;;;;;;;4.95;3.40;;;;;;;28.89;53.42;97976.09;1220055;75;2919099;-70
2023/08/15 09:40:04;;;;;;;4.70;3.55;;;;;;;28.98;54.91;97983.03;1222358;75;2927771;-72
2023/08/15 09:42:37;;;;;;;3.55;3.15;;;;;;;29.31;52.26;97985.38;1221264;75;2929375;-71
2023/08/15 09:45:12;;;;;;;5.10;3.55;;;;;;;28.72;53.91;97978.31;1222310;75;2924648;-71
2023/08/15 09:47:46;;;;;;;3.50;3.20;;;;;;;29.75;52.19;97980.63;1222353;75;2932293;-72
2023/08/15 09:50:19;;;;;;;4.30;3.70;;;;;;;29.61;52.82;97967.00;1221956;75;2930120;-74
2023/08/15 09:52:56;;;;;;;3.90;3.50;;;;;;;29.67;52.88;97967.44;1218630;75;2922803;-73
2023/08/15 09:55:31;;;;;;;4.45;2.95;;;;;;;30.31;51.29;97960.41;1223022;75;2924896;-71
2023/08/15 09:58:03;;;;;;;4.30;3.55;;;;;;;30.06;52.45;97964.41;1222264;75;2930169;-72
2023/08/15 10:00:38;;;;;;;4.20;3.50;;;;;;;29.95;51.86;97962.25;1219761;75;2927269;-71
2023/08/15 10:03:18;;;;;;;3.65;3.20;;;;;;;30.14;52.05;97961.41;1221539;75;2930364;-72
2023/08/15 10:05:57;;;;;;;4.20;3.20;;;;;;;30.69;50.71;97956.53;1220893;75;2917641;-72
2023/08/15 10:08:33;;;;;;;3.40;3.10;;;;;;;30.80;51.49;97966.38;1221318;75;2925971;-70
2023/08/15 10:11:09;;;;;;;4.10;3.45;;;;;;;31.13;51.02;97955.06;1221476;75;2924419;-70
2023/08/15 10:13:42;;;;;;;3.45;2.90;;;;;;;31.93;49.46;97951.41;1222307;75;2922240;-75
2023/08/15 10:16:17;;;;;;;3.60;2.85;;;;;;;31.41;51.27;97950.44;1222123;75;2930416;-75
2023/08/15 10:18:57;;;;;;;3.35;2.95;;;;;;;31.55;49.66;97950.56;1220643;75;2943689;-72
2023/08/15 10:21:48;;;;;;;4.20;3.20;;;;;;;32.40;49.05;97944.88;1151016;75;5963145;-76
2023/08/15 10:24:24;;;;;;;3.20;2.90;;;;;;;33.09;46.63;97937.44;1220872;75;2925341;-74
2023/08/15 10:26:59;;;;;;;3.20;2.90;;;;;;;32.15;46.67;97943.50;1221924;75;2935077;-73
2023/08/15 10:29:32;;;;;;;3.75;3.35;;;;;;;32.47;46.63;97946.72;1222830;75;2933400;-71
2023/08/15 10:32:05;;;;;;;3.40;3.10;;;;;;;32.58;46.37;97943.13;1219499;75;2923941;-72
2023/08/15 10:34:38;;;;;;;3.65;3.30;;;;;;;32.33;46.98;97945.91;1222247;75;2927570;-73
2023/08/15 10:37:38;;;;;;;4.90;3.45;;;;;;;32.64;46.22;97946.31;1222845;75;2927994;-72
2023/08/15 10:40:16;;;;;;;3.15;2.80;;;;;;;33.14;46.84;97938.41;1221954;75;2920493;-72
2023/08/15 10:43:11;;;;;;;3.90;3.30;;;;;;;31.91;47.52;97939.94;1222645;75;2928118;-69
2023/08/15 10:45:50;;;;;;;3.30;3.00;;;;;;;32.35;46.14;97946.00;1223145;75;2921437;-72
2023/08/15 10:48:47;;;;;;;3.85;3.45;;;;;;;32.89;47.20;97934.22;1223304;75;2926854;-73
2023/08/15 10:51:22;;;;;;;3.70;3.30;;;;;;;33.19;46.99;97942.91;1222092;75;2944115;-72
2023/08/15 10:53:56;;;;;;;6.45;3.95;;;;;;;32.56;46.19;97945.84;1222440;75;2929750;-72
2023/08/15 10:56:34;;;;;;;4.20;3.45;;;;;;;32.63;46.33;97938.41;1223027;75;2923406;-72
2023/08/15 10:59:11;;;;;;;5.60;4.30;;;;;;;32.26;46.27;97939.16;1222689;75;2924453;-73
2023/08/15 11:01:46;;;;;;;4.70;3.90;;;;;;;32.58;45.11;97945.97;1222176;75;2921291;-71
2023/08/15 11:04:20;;;;;;;4.30;3.35;;;;;;;33.38;44.15;97938.97;1223025;75;2923060;-73
2023/08/15 11:06:54;;;;;;;3.15;2.55;;;;;;;33.82;42.79;97939.88;1222656;75;2932192;-70
2023/08/15 11:09:31;;;;;;;3.40;3.05;;;;;;;33.07;44.38;97948.69;1222236;75;2924814;-74
2023/08/15 11:12:12;;;;;;;3.90;3.40;;;;;;;33.64;43.57;97942.47;1223432;75;2925130;-72
2023/08/15 11:14:45;;;;;;;3.75;2.75;;;;;;;34.38;41.25;97943.38;1223173;75;2919060;-72
2023/08/15 11:17:17;;;;;;;3.95;3.30;;;;;;;33.46;43.30;97944.34;1222992;75;2925295;-73
2023/08/15 11:19:50;;;;;;;5.35;2.95;;;;;;;33.00;43.60;97946.09;1222603;75;2927574;-74
2023/08/15 11:22:23;;;;;;;4.55;3.10;;;;;;;32.89;43.87;97942.72;1222802;75;2925359;-72
2023/08/15 11:24:56;;;;;;;4.15;3.20;;;;;;;33.57;43.78;97945.63;1223305;75;2924423;-72
2023/08/15 11:27:31;;;;;;;2.60;2.40;;;;;;;33.98;42.36;97939.94;1223154;75;2923674;-70
2023/08/15 11:30:04;;;;;;;7.25;3.25;;;;;;;33.82;42.36;97931.34;1223098;75;2919608;-72
2023/08/15 11:32:37;;;;;;;3.30;2.70;;;;;;;34.40;42.43;97937.03;1222560;75;2925682;-72
2023/08/15 11:35:13;;;;;;;3.15;2.70;;;;;;;34.82;41.42;97923.44;1222604;75;2934565;-73
2023/08/15 11:37:45;;;;;;;3.65;3.00;;;;;;;34.63;41.69;97911.19;1222510;75;2919399;-73
2023/08/15 11:40:18;;;;;;;5.60;3.10;;;;;;;32.48;45.19;97922.69;1221063;75;2920421;-72
2023/08/15 11:42:53;;;;;;;4.00;3.20;;;;;;;33.77;43.10;97917.56;1221377;75;2951245;-74